sensor_id;sensor_type;location;lat;lon;timestamp;P1;durP1;ratioP1;P2;durP2;ratioP2
20705;SDS011;10514;49.468;11.044;2023-07-08T00:00:49;7.50;;;3.97;;
20705;SDS011;10514;49.468;11.044;2023-07-08T00:03:15;6.07;;;4.18;;
20705;SDS011;10514;49.468;11.044;2023-07-08T00:05:41;6.65;;;3.53;;
20705;SDS011;10514;49.468;11.044;2023-07-08T00:08:17;5.13;;;3.72;;
20705;SDS011;10514;49.468;11.044;2023-07-08T00:10:43;6.72;;;3.83;;
20705;SDS011;10514;49.468;11.044;2023-07-08T00:13:09;5.45;;;3.78;;
20705;SDS011;10514;49.468;11.044;2023-07-08T00:15:36;6.07;;;4.07;;
20705;SDS011;10514;49.468;11.044;2023-07-08T00:18:08;5.72;;;3.95;;
20705;SDS011;10514;49.468;11.044;2023-07-08T00:20:36;4.25;;;3.05;;
20705;SDS011;10514;49.468;11.044;2023-07-08T00:23:03;7.75;;;3.10;;
20705;SDS011;10514;49.468;11.044;2023-07-08T00:25:29;5.45;;;3.90;;
20705;SDS011;10514;49.468;11.044;2023-07-08T00:27:55;5.20;;;3.47;;
20705;SDS011;10514;49.468;11.044;2023-07-08T00:30:23;4.93;;;3.83;;
20705;SDS011;10514;49.468;11.044;2023-07-08T00:32:49;4.55;;;3.72;;
20705;SDS011;10514;49.468;11.044;2023-07-08T00:35:24;6.65;;;3.88;;
20705;SDS011;10514;49.468;11.044;2023-07-08T00:37:51;5.43;;;3.88;;
20705;SDS011;10514;49.468;11.044;2023-07-08T00:40:19;6.28;;;3.63;;
20705;SDS011;10514;49.468;11.044;2023-07-08T00:42:45;4.97;;;3.40;;
20705;SDS011;10514;49.468;11.044;2023-07-08T00:45:27;8.07;;;4.15;;
20705;SDS011;10514;49.468;11.044;2023-07-08T00:47:55;6.80;;;3.53;;
20705;SDS011;10514;49.468;11.044;2023-07-08T00:50:22;8.55;;;3.90;;
20705;SDS011;10514;49.468;11.044;2023-07-08T00:52:48;5.03;;;3.45;;
20705;SDS011;10514;49.468;11.044;2023-07-08T00:55:13;4.60;;;3.20;;
20705;SDS011;10514;49.468;11.044;2023-07-08T00:57:41;4.82;;;3.67;;
20705;SDS011;10514;49.468;11.044;2023-07-08T01:00:10;5.95;;;3.35;;
20705;SDS011;10514;49.468;11.044;2023-07-08T01:02:53;5.40;;;3.40;;
20705;SDS011;10514;49.468;11.044;2023-07-08T01:05:22;5.07;;;3.38;;
20705;SDS011;10514;49.468;11.044;2023-07-08T01:07:50;7.43;;;3.75;;
20705;SDS011;10514;49.468;11.044;2023-07-08T01:10:18;4.95;;;3.38;;
20705;SDS011;10514;49.468;11.044;2023-07-08T01:12:47;8.85;;;3.88;;
20705;SDS011;10514;49.468;11.044;2023-07-08T01:15:15;5.55;;;3.85;;
20705;SDS011;10514;49.468;11.044;2023-07-08T01:17:42;6.50;;;3.65;;
20705;SDS011;10514;49.468;11.044;2023-07-08T01:20:08;5.32;;;3.85;;
20705;SDS011;10514;49.468;11.044;2023-07-08T01:22:40;3.95;;;3.20;;
20705;SDS011;10514;49.468;11.044;2023-07-08T01:25:06;5.53;;;3.78;;
20705;SDS011;10514;49.468;11.044;2023-07-08T01:27:34;4.97;;;3.35;;
20705;SDS011;10514;49.468;11.044;2023-07-08T01:30:02;5.38;;;3.65;;
20705;SDS011;10514;49.468;11.044;2023-07-08T01:32:28;7.28;;;3.80;;
20705;SDS011;10514;49.468;11.044;2023-07-08T01:34:57;7.65;;;4.00;;
20705;SDS011;10514;49.468;11.044;2023-07-08T01:37:28;5.25;;;3.40;;
20705;SDS011;10514;49.468;11.044;2023-07-08T01:39:54;8.52;;;4.15;;
20705;SDS011;10514;49.468;11.044;2023-07-08T01:42:20;7.22;;;3.50;;
20705;SDS011;10514;49.468;11.044;2023-07-08T01:44:46;5.47;;;4.18;;
20705;SDS011;10514;49.468;11.044;2023-07-08T01:47:19;5.88;;;3.80;;
20705;SDS011;10514;49.468;11.044;2023-07-08T01:49:46;5.25;;;3.30;;
20705;SDS011;10514;49.468;11.044;2023-07-08T01:52:13;4.68;;;3.30;;
20705;SDS011;10514;49.468;11.044;2023-07-08T01:54:40;4.93;;;3.45;;
20705;SDS011;10514;49.468;11.044;2023-07-08T01:57:06;5.32;;;3.42;;
20705;SDS011;10514;49.468;11.044;2023-07-08T01:59:32;5.70;;;2.95;;
20705;SDS011;10514;49.468;11.044;2023-07-08T02:01:58;5.32;;;3.60;;
20705;SDS011;10514;49.468;11.044;2023-07-08T02:04:25;5.80;;;4.05;;
20705;SDS011;10514;49.468;11.044;2023-07-08T02:06:52;6.88;;;4.18;;
20705;SDS011;10514;49.468;11.044;2023-07-08T02:09:18;5.63;;;3.67;;
20705;SDS011;10514;49.468;11.044;2023-07-08T02:11:44;6.60;;;4.10;;
20705;SDS011;10514;49.468;11.044;2023-07-08T02:14:10;5.55;;;3.40;;
20705;SDS011;10514;49.468;11.044;2023-07-08T02:16:36;8.45;;;3.97;;
20705;SDS011;10514;49.468;11.044;2023-07-08T02:19:02;9.27;;;4.05;;
20705;SDS011;10514;49.468;11.044;2023-07-08T02:21:28;6.28;;;4.00;;
20705;SDS011;10514;49.468;11.044;2023-07-08T02:23:55;6.38;;;3.53;;
20705;SDS011;10514;49.468;11.044;2023-07-08T02:26:22;5.20;;;3.75;;
20705;SDS011;10514;49.468;11.044;2023-07-08T02:28:48;5.40;;;3.90;;
20705;SDS011;10514;49.468;11.044;2023-07-08T02:31:14;6.80;;;3.90;;
20705;SDS011;10514;49.468;11.044;2023-07-08T02:33:40;6.95;;;4.03;;
20705;SDS011;10514;49.468;11.044;2023-07-08T02:36:06;6.60;;;3.92;;
20705;SDS011;10514;49.468;11.044;2023-07-08T02:38:32;6.63;;;4.18;;
20705;SDS011;10514;49.468;11.044;2023-07-08T02:40:58;7.55;;;3.97;;
20705;SDS011;10514;49.468;11.044;2023-07-08T02:43:24;8.52;;;4.63;;
20705;SDS011;10514;49.468;11.044;2023-07-08T02:45:50;7.75;;;4.22;;
20705;SDS011;10514;49.468;11.044;2023-07-08T02:48:17;7.63;;;4.45;;
20705;SDS011;10514;49.468;11.044;2023-07-08T02:50:43;8.32;;;4.47;;
20705;SDS011;10514;49.468;11.044;2023-07-08T02:53:09;7.05;;;4.40;;
20705;SDS011;10514;49.468;11.044;2023-07-08T02:55:35;9.25;;;4.30;;
20705;SDS011;10514;49.468;11.044;2023-07-08T02:58:01;8.80;;;4.18;;
20705;SDS011;10514;49.468;11.044;2023-07-08T03:00:27;7.38;;;4.13;;
20705;SDS011;10514;49.468;11.044;2023-07-08T03:02:53;7.05;;;4.45;;
20705;SDS011;10514;49.468;11.044;2023-07-08T03:05:19;7.95;;;4.18;;
20705;SDS011;10514;49.468;11.044;2023-07-08T03:07:45;7.15;;;4.57;;
20705;SDS011;10514;49.468;11.044;2023-07-08T03:10:11;10.13;;;4.63;;
20705;SDS011;10514;49.468;11.044;2023-07-08T03:12:37;8.10;;;4.55;;
20705;SDS011;10514;49.468;11.044;2023-07-08T03:15:03;7.78;;;4.32;;
20705;SDS011;10514;49.468;11.044;2023-07-08T03:17:29;10.02;;;4.68;;
20705;SDS011;10514;49.468;11.044;2023-07-08T03:19:55;6.82;;;3.92;;
20705;SDS011;10514;49.468;11.044;2023-07-08T03:22:20;8.27;;;4.57;;
20705;SDS011;10514;49.468;11.044;2023-07-08T03:24:46;7.28;;;4.43;;
20705;SDS011;10514;49.468;11.044;2023-07-08T03:27:13;12.38;;;4.50;;
20705;SDS011;10514;49.468;11.044;2023-07-08T03:29:39;7.03;;;4.32;;
20705;SDS011;10514;49.468;11.044;2023-07-08T03:32:06;7.75;;;4.63;;
20705;SDS011;10514;49.468;11.044;2023-07-08T03:34:36;9.15;;;4.20;;
20705;SDS011;10514;49.468;11.044;2023-07-08T03:37:02;11.10;;;3.97;;
20705;SDS011;10514;49.468;11.044;2023-07-08T03:39:28;8.23;;;3.75;;
20705;SDS011;10514;49.468;11.044;2023-07-08T03:41:56;10.30;;;4.38;;
20705;SDS011;10514;49.468;11.044;2023-07-08T03:44:22;6.55;;;3.83;;
20705;SDS011;10514;49.468;11.044;2023-07-08T03:46:48;8.88;;;4.15;;
20705;SDS011;10514;49.468;11.044;2023-07-08T03:49:15;8.15;;;5.00;;
20705;SDS011;10514;49.468;11.044;2023-07-08T03:51:48;8.90;;;3.97;;
20705;SDS011;10514;49.468;11.044;2023-07-08T03:54:15;8.50;;;4.55;;
20705;SDS011;10514;49.468;11.044;2023-07-08T03:56:41;12.20;;;4.43;;
20705;SDS011;10514;49.468;11.044;2023-07-08T03:59:07;6.93;;;4.78;;
20705;SDS011;10514;49.468;11.044;2023-07-08T04:01:33;8.45;;;4.57;;
20705;SDS011;10514;49.468;11.044;2023-07-08T04:03:59;7.72;;;4.18;;
20705;SDS011;10514;49.468;11.044;2023-07-08T04:06:25;9.13;;;4.65;;
20705;SDS011;10514;49.468;11.044;2023-07-08T04:08:53;10.02;;;4.72;;
20705;SDS011;10514;49.468;11.044;2023-07-08T04:11:20;9.63;;;4.38;;
20705;SDS011;10514;49.468;11.044;2023-07-08T04:13:46;7.55;;;4.60;;
20705;SDS011;10514;49.468;11.044;2023-07-08T04:16:22;8.90;;;4.68;;
20705;SDS011;10514;49.468;11.044;2023-07-08T04:18:49;9.20;;;4.47;;
20705;SDS011;10514;49.468;11.044;2023-07-08T04:21:18;9.93;;;4.40;;
20705;SDS011;10514;49.468;11.044;2023-07-08T04:23:44;7.82;;;5.13;;
20705;SDS011;10514;49.468;11.044;2023-07-08T04:26:10;9.93;;;5.28;;
20705;SDS011;10514;49.468;11.044;2023-07-08T04:28:36;7.85;;;4.63;;
20705;SDS011;10514;49.468;11.044;2023-07-08T04:31:02;8.48;;;4.75;;
20705;SDS011;10514;49.468;11.044;2023-07-08T04:33:28;7.32;;;4.35;;
20705;SDS011;10514;49.468;11.044;2023-07-08T04:35:54;8.38;;;4.65;;
20705;SDS011;10514;49.468;11.044;2023-07-08T04:38:21;8.45;;;4.25;;
20705;SDS011;10514;49.468;11.044;2023-07-08T04:40:48;7.35;;;4.15;;
20705;SDS011;10514;49.468;11.044;2023-07-08T04:43:15;11.45;;;4.88;;
20705;SDS011;10514;49.468;11.044;2023-07-08T04:45:42;7.80;;;4.28;;
20705;SDS011;10514;49.468;11.044;2023-07-08T04:48:12;11.23;;;5.22;;
20705;SDS011;10514;49.468;11.044;2023-07-08T04:50:39;8.48;;;4.18;;
20705;SDS011;10514;49.468;11.044;2023-07-08T04:53:06;14.43;;;6.90;;
20705;SDS011;10514;49.468;11.044;2023-07-08T04:55:32;9.52;;;4.38;;
20705;SDS011;10514;49.468;11.044;2023-07-08T04:57:58;10.13;;;5.45;;
20705;SDS011;10514;49.468;11.044;2023-07-08T05:00:24;8.13;;;6.45;;
20705;SDS011;10514;49.468;11.044;2023-07-08T05:02:50;10.25;;;6.97;;
20705;SDS011;10514;49.468;11.044;2023-07-08T05:05:16;9.95;;;5.90;;
20705;SDS011;10514;49.468;11.044;2023-07-08T05:07:42;12.88;;;5.68;;
20705;SDS011;10514;49.468;11.044;2023-07-08T05:10:08;9.65;;;5.25;;
20705;SDS011;10514;49.468;11.044;2023-07-08T05:12:34;7.82;;;4.70;;
20705;SDS011;10514;49.468;11.044;2023-07-08T05:15:01;13.27;;;5.35;;
20705;SDS011;10514;49.468;11.044;2023-07-08T05:17:27;7.47;;;5.72;;
20705;SDS011;10514;49.468;11.044;2023-07-08T05:19:53;8.40;;;5.75;;
20705;SDS011;10514;49.468;11.044;2023-07-08T05:22:19;7.72;;;5.65;;
20705;SDS011;10514;49.468;11.044;2023-07-08T05:24:50;8.65;;;5.85;;
20705;SDS011;10514;49.468;11.044;2023-07-08T05:27:17;11.68;;;5.57;;
20705;SDS011;10514;49.468;11.044;2023-07-08T05:29:43;11.60;;;5.28;;
20705;SDS011;10514;49.468;11.044;2023-07-08T05:32:09;8.80;;;5.80;;
20705;SDS011;10514;49.468;11.044;2023-07-08T05:34:35;11.93;;;5.53;;
20705;SDS011;10514;49.468;11.044;2023-07-08T05:37:01;8.05;;;5.28;;
20705;SDS011;10514;49.468;11.044;2023-07-08T05:39:28;9.77;;;6.03;;
20705;SDS011;10514;49.468;11.044;2023-07-08T05:41:55;9.35;;;5.38;;
20705;SDS011;10514;49.468;11.044;2023-07-08T05:44:21;10.90;;;5.43;;
20705;SDS011;10514;49.468;11.044;2023-07-08T05:46:47;7.03;;;4.88;;
20705;SDS011;10514;49.468;11.044;2023-07-08T05:49:13;9.40;;;4.93;;
20705;SDS011;10514;49.468;11.044;2023-07-08T05:51:39;7.78;;;5.10;;
20705;SDS011;10514;49.468;11.044;2023-07-08T05:54:05;7.80;;;5.13;;
20705;SDS011;10514;49.468;11.044;2023-07-08T05:56:31;8.70;;;4.78;;
20705;SDS011;10514;49.468;11.044;2023-07-08T05:58:57;8.77;;;5.80;;
20705;SDS011;10514;49.468;11.044;2023-07-08T06:01:23;9.77;;;4.97;;
20705;SDS011;10514;49.468;11.044;2023-07-08T06:03:49;6.97;;;3.80;;
20705;SDS011;10514;49.468;11.044;2023-07-08T06:06:15;8.93;;;4.40;;
20705;SDS011;10514;49.468;11.044;2023-07-08T06:08:41;7.85;;;4.65;;
20705;SDS011;10514;49.468;11.044;2023-07-08T06:11:07;5.63;;;4.20;;
20705;SDS011;10514;49.468;11.044;2023-07-08T06:13:33;5.95;;;4.22;;
20705;SDS011;10514;49.468;11.044;2023-07-08T06:15:59;5.45;;;4.18;;
20705;SDS011;10514;49.468;11.044;2023-07-08T06:18:25;6.88;;;4.95;;
20705;SDS011;10514;49.468;11.044;2023-07-08T06:20:51;6.35;;;3.88;;
20705;SDS011;10514;49.468;11.044;2023-07-08T06:23:17;6.63;;;4.03;;
20705;SDS011;10514;49.468;11.044;2023-07-08T06:25:43;7.30;;;4.47;;
20705;SDS011;10514;49.468;11.044;2023-07-08T06:28:09;6.20;;;4.20;;
20705;SDS011;10514;49.468;11.044;2023-07-08T06:30:35;7.97;;;4.88;;
20705;SDS011;10514;49.468;11.044;2023-07-08T06:33:02;5.95;;;3.72;;
20705;SDS011;10514;49.468;11.044;2023-07-08T06:35:28;6.90;;;4.68;;
20705;SDS011;10514;49.468;11.044;2023-07-08T06:37:54;9.35;;;4.38;;
20705;SDS011;10514;49.468;11.044;2023-07-08T06:40:20;6.72;;;4.63;;
20705;SDS011;10514;49.468;11.044;2023-07-08T06:42:45;4.07;;;3.67;;
20705;SDS011;10514;49.468;11.044;2023-07-08T06:45:11;7.70;;;4.70;;
20705;SDS011;10514;49.468;11.044;2023-07-08T06:47:37;8.02;;;4.35;;
20705;SDS011;10514;49.468;11.044;2023-07-08T06:50:04;6.05;;;4.53;;
20705;SDS011;10514;49.468;11.044;2023-07-08T06:52:30;6.07;;;4.10;;
20705;SDS011;10514;49.468;11.044;2023-07-08T06:54:59;8.02;;;4.78;;
20705;SDS011;10514;49.468;11.044;2023-07-08T06:57:26;4.72;;;3.83;;
20705;SDS011;10514;49.468;11.044;2023-07-08T06:59:52;7.60;;;4.35;;
20705;SDS011;10514;49.468;11.044;2023-07-08T07:02:18;6.15;;;4.45;;
20705;SDS011;10514;49.468;11.044;2023-07-08T07:04:44;5.18;;;4.35;;
20705;SDS011;10514;49.468;11.044;2023-07-08T07:07:10;5.68;;;4.63;;
20705;SDS011;10514;49.468;11.044;2023-07-08T07:09:36;8.30;;;4.20;;
20705;SDS011;10514;49.468;11.044;2023-07-08T07:12:04;6.80;;;4.38;;
20705;SDS011;10514;49.468;11.044;2023-07-08T07:14:31;6.65;;;3.72;;
20705;SDS011;10514;49.468;11.044;2023-07-08T07:16:57;6.43;;;4.43;;
20705;SDS011;10514;49.468;11.044;2023-07-08T07:19:23;8.65;;;4.18;;
20705;SDS011;10514;49.468;11.044;2023-07-08T07:21:49;5.53;;;4.28;;
20705;SDS011;10514;49.468;11.044;2023-07-08T07:24:15;7.38;;;4.32;;
20705;SDS011;10514;49.468;11.044;2023-07-08T07:26:41;8.63;;;4.78;;
20705;SDS011;10514;49.468;11.044;2023-07-08T07:29:06;5.95;;;3.83;;
20705;SDS011;10514;49.468;11.044;2023-07-08T07:31:32;6.07;;;3.95;;
20705;SDS011;10514;49.468;11.044;2023-07-08T07:33:59;6.43;;;4.30;;
20705;SDS011;10514;49.468;11.044;2023-07-08T07:36:25;7.15;;;4.75;;
20705;SDS011;10514;49.468;11.044;2023-07-08T07:38:51;5.93;;;4.10;;
20705;SDS011;10514;49.468;11.044;2023-07-08T07:41:17;6.53;;;4.18;;
20705;SDS011;10514;49.468;11.044;2023-07-08T07:43:42;8.57;;;3.60;;
20705;SDS011;10514;49.468;11.044;2023-07-08T07:46:08;6.55;;;4.00;;
20705;SDS011;10514;49.468;11.044;2023-07-08T07:48:35;4.97;;;4.10;;
20705;SDS011;10514;49.468;11.044;2023-07-08T07:51:01;5.75;;;4.50;;
20705;SDS011;10514;49.468;11.044;2023-07-08T07:53:27;5.78;;;4.10;;
20705;SDS011;10514;49.468;11.044;2023-07-08T07:55:59;4.68;;;3.75;;
20705;SDS011;10514;49.468;11.044;2023-07-08T07:58:26;6.47;;;3.88;;
20705;SDS011;10514;49.468;11.044;2023-07-08T08:00:52;5.63;;;4.43;;
20705;SDS011;10514;49.468;11.044;2023-07-08T08:03:18;5.80;;;3.65;;
20705;SDS011;10514;49.468;11.044;2023-07-08T08:05:44;6.97;;;4.90;;
20705;SDS011;10514;49.468;11.044;2023-07-08T08:08:10;6.32;;;4.07;;
20705;SDS011;10514;49.468;11.044;2023-07-08T08:10:36;5.25;;;3.88;;
20705;SDS011;10514;49.468;11.044;2023-07-08T08:13:02;4.95;;;4.18;;
20705;SDS011;10514;49.468;11.044;2023-07-08T08:15:28;5.75;;;3.75;;
20705;SDS011;10514;49.468;11.044;2023-07-08T08:17:54;6.47;;;3.65;;
20705;SDS011;10514;49.468;11.044;2023-07-08T08:20:21;4.95;;;4.30;;
20705;SDS011;10514;49.468;11.044;2023-07-08T08:22:48;9.27;;;4.10;;
20705;SDS011;10514;49.468;11.044;2023-07-08T08:25:17;7.53;;;4.28;;
20705;SDS011;10514;49.468;11.044;2023-07-08T08:27:44;4.78;;;3.70;;
20705;SDS011;10514;49.468;11.044;2023-07-08T08:30:10;4.35;;;3.58;;
20705;SDS011;10514;49.468;11.044;2023-07-08T08:32:37;4.65;;;3.78;;
20705;SDS011;10514;49.468;11.044;2023-07-08T08:35:03;6.22;;;4.18;;
20705;SDS011;10514;49.468;11.044;2023-07-08T08:37:29;6.57;;;4.00;;
20705;SDS011;10514;49.468;11.044;2023-07-08T08:39:55;6.32;;;3.70;;
20705;SDS011;10514;49.468;11.044;2023-07-08T08:44:47;5.28;;;3.78;;
20705;SDS011;10514;49.468;11.044;2023-07-08T08:47:35;5.22;;;4.00;;
20705;SDS011;10514;49.468;11.044;2023-07-08T08:50:05;6.15;;;3.72;;
20705;SDS011;10514;49.468;11.044;2023-07-08T08:52:33;4.72;;;4.15;;
20705;SDS011;10514;49.468;11.044;2023-07-08T08:55:00;4.38;;;3.65;;
20705;SDS011;10514;49.468;11.044;2023-07-08T08:57:32;5.10;;;4.28;;
20705;SDS011;10514;49.468;11.044;2023-07-08T09:00:01;6.30;;;3.95;;
20705;SDS011;10514;49.468;11.044;2023-07-08T09:05:18;5.90;;;4.10;;
20705;SDS011;10514;49.468;11.044;2023-07-08T09:07:45;4.00;;;3.65;;
20705;SDS011;10514;49.468;11.044;2023-07-08T09:10:19;4.68;;;3.92;;
20705;SDS011;10514;49.468;11.044;2023-07-08T09:12:57;5.53;;;3.75;;
20705;SDS011;10514;49.468;11.044;2023-07-08T09:15:28;6.07;;;4.10;;
20705;SDS011;10514;49.468;11.044;2023-07-08T09:17:53;4.18;;;3.70;;
20705;SDS011;10514;49.468;11.044;2023-07-08T09:20:28;5.13;;;3.67;;
20705;SDS011;10514;49.468;11.044;2023-07-08T09:23:07;4.57;;;3.53;;
20705;SDS011;10514;49.468;11.044;2023-07-08T09:28:04;6.13;;;3.28;;
20705;SDS011;10514;49.468;11.044;2023-07-08T09:30:30;4.97;;;4.40;;
20705;SDS011;10514;49.468;11.044;2023-07-08T09:32:57;3.67;;;3.10;;
20705;SDS011;10514;49.468;11.044;2023-07-08T09:35:24;6.97;;;3.95;;
20705;SDS011;10514;49.468;11.044;2023-07-08T09:37:51;4.88;;;3.53;;
20705;SDS011;10514;49.468;11.044;2023-07-08T09:40:18;6.63;;;3.97;;
20705;SDS011;10514;49.468;11.044;2023-07-08T09:42:46;5.03;;;3.65;;
20705;SDS011;10514;49.468;11.044;2023-07-08T09:45:14;6.55;;;3.90;;
20705;SDS011;10514;49.468;11.044;2023-07-08T09:47:43;6.40;;;3.92;;
20705;SDS011;10514;49.468;11.044;2023-07-08T09:52:47;7.10;;;3.72;;
20705;SDS011;10514;49.468;11.044;2023-07-08T09:55:14;4.20;;;3.70;;
20705;SDS011;10514;49.468;11.044;2023-07-08T09:57:40;7.90;;;3.45;;
20705;SDS011;10514;49.468;11.044;2023-07-08T10:00:09;4.70;;;3.78;;
20705;SDS011;10514;49.468;11.044;2023-07-08T10:02:43;4.72;;;3.08;;
20705;SDS011;10514;49.468;11.044;2023-07-08T10:07:38;6.75;;;4.10;;
20705;SDS011;10514;49.468;11.044;2023-07-08T10:10:06;6.57;;;4.00;;
20705;SDS011;10514;49.468;11.044;2023-07-08T10:12:33;4.40;;;3.17;;
20705;SDS011;10514;49.468;11.044;2023-07-08T10:15:10;5.78;;;3.90;;
20705;SDS011;10514;49.468;11.044;2023-07-08T10:17:38;6.82;;;3.95;;
20705;SDS011;10514;49.468;11.044;2023-07-08T10:20:12;5.68;;;3.63;;
20705;SDS011;10514;49.468;11.044;2023-07-08T10:22:41;8.75;;;4.30;;
20705;SDS011;10514;49.468;11.044;2023-07-08T10:25:11;4.38;;;3.85;;
20705;SDS011;10514;49.468;11.044;2023-07-08T10:35:18;4.43;;;3.92;;
20705;SDS011;10514;49.468;11.044;2023-07-08T10:40:38;4.63;;;3.90;;
20705;SDS011;10514;49.468;11.044;2023-07-08T10:48:18;7.68;;;4.13;;
20705;SDS011;10514;49.468;11.044;2023-07-08T11:01:29;12.05;;;4.32;;
20705;SDS011;10514;49.468;11.044;2023-07-08T11:09:29;5.35;;;3.90;;
20705;SDS011;10514;49.468;11.044;2023-07-08T11:14:52;5.82;;;4.18;;
20705;SDS011;10514;49.468;11.044;2023-07-08T11:17:32;5.85;;;4.32;;
20705;SDS011;10514;49.468;11.044;2023-07-08T11:20:13;7.05;;;4.57;;
20705;SDS011;10514;49.468;11.044;2023-07-08T11:22:44;7.18;;;4.35;;
20705;SDS011;10514;49.468;11.044;2023-07-08T11:25:15;5.13;;;4.07;;
20705;SDS011;10514;49.468;11.044;2023-07-08T11:27:43;7.93;;;3.83;;
20705;SDS011;10514;49.468;11.044;2023-07-08T11:30:13;6.03;;;4.53;;
20705;SDS011;10514;49.468;11.044;2023-07-08T11:32:40;5.78;;;5.10;;
20705;SDS011;10514;49.468;11.044;2023-07-08T11:38:14;4.57;;;4.07;;
20705;SDS011;10514;49.468;11.044;2023-07-08T11:40:57;6.15;;;3.72;;
20705;SDS011;10514;49.468;11.044;2023-07-08T11:43:41;4.38;;;3.97;;
20705;SDS011;10514;49.468;11.044;2023-07-08T11:46:20;6.82;;;3.92;;
20705;SDS011;10514;49.468;11.044;2023-07-08T11:48:51;5.70;;;4.45;;
20705;SDS011;10514;49.468;11.044;2023-07-08T11:51:22;6.53;;;4.32;;
20705;SDS011;10514;49.468;11.044;2023-07-08T11:53:50;6.90;;;4.93;;
20705;SDS011;10514;49.468;11.044;2023-07-08T11:56:28;5.18;;;4.60;;
20705;SDS011;10514;49.468;11.044;2023-07-08T11:59:12;6.72;;;4.45;;
20705;SDS011;10514;49.468;11.044;2023-07-08T12:02:24;6.45;;;4.45;;
20705;SDS011;10514;49.468;11.044;2023-07-08T12:04:33;5.45;;;3.78;;
20705;SDS011;10514;49.468;11.044;2023-07-08T12:09:47;6.80;;;4.30;;
20705;SDS011;10514;49.468;11.044;2023-07-08T12:12:21;10.18;;;4.28;;
20705;SDS011;10514;49.468;11.044;2023-07-08T12:14:47;5.88;;;4.28;;
20705;SDS011;10514;49.468;11.044;2023-07-08T12:17:14;4.60;;;3.97;;
20705;SDS011;10514;49.468;11.044;2023-07-08T12:19:41;7.25;;;5.10;;
20705;SDS011;10514;49.468;11.044;2023-07-08T12:22:08;6.32;;;4.65;;
20705;SDS011;10514;49.468;11.044;2023-07-08T12:24:36;8.90;;;4.43;;
20705;SDS011;10514;49.468;11.044;2023-07-08T12:27:02;6.70;;;4.30;;
20705;SDS011;10514;49.468;11.044;2023-07-08T12:29:28;8.05;;;4.28;;
20705;SDS011;10514;49.468;11.044;2023-07-08T12:31:54;5.22;;;4.40;;
20705;SDS011;10514;49.468;11.044;2023-07-08T12:34:21;5.55;;;4.68;;
20705;SDS011;10514;49.468;11.044;2023-07-08T12:36:49;6.75;;;4.43;;
20705;SDS011;10514;49.468;11.044;2023-07-08T12:39:16;8.57;;;5.00;;
20705;SDS011;10514;49.468;11.044;2023-07-08T12:41:42;6.50;;;4.35;;
20705;SDS011;10514;49.468;11.044;2023-07-08T12:44:16;5.93;;;4.32;;
20705;SDS011;10514;49.468;11.044;2023-07-08T12:46:44;6.40;;;4.78;;
20705;SDS011;10514;49.468;11.044;2023-07-08T12:49:11;6.20;;;4.28;;
20705;SDS011;10514;49.468;11.044;2023-07-08T12:51:37;4.97;;;4.10;;
20705;SDS011;10514;49.468;11.044;2023-07-08T12:54:08;8.05;;;4.70;;
20705;SDS011;10514;49.468;11.044;2023-07-08T12:56:35;5.25;;;4.38;;
20705;SDS011;10514;49.468;11.044;2023-07-08T12:59:01;5.07;;;4.22;;
20705;SDS011;10514;49.468;11.044;2023-07-08T13:01:28;9.30;;;4.68;;
20705;SDS011;10514;49.468;11.044;2023-07-08T13:03:59;8.48;;;4.88;;
20705;SDS011;10514;49.468;11.044;2023-07-08T13:06:34;7.03;;;4.53;;
20705;SDS011;10514;49.468;11.044;2023-07-08T13:09:04;4.45;;;4.03;;
20705;SDS011;10514;49.468;11.044;2023-07-08T13:11:34;7.55;;;4.70;;
20705;SDS011;10514;49.468;11.044;2023-07-08T13:14:01;5.53;;;4.57;;
20705;SDS011;10514;49.468;11.044;2023-07-08T13:16:30;7.43;;;4.50;;
20705;SDS011;10514;49.468;11.044;2023-07-08T13:18:58;5.00;;;4.07;;
20705;SDS011;10514;49.468;11.044;2023-07-08T13:21:25;5.43;;;4.40;;
20705;SDS011;10514;49.468;11.044;2023-07-08T13:23:52;5.40;;;4.68;;
20705;SDS011;10514;49.468;11.044;2023-07-08T13:26:20;6.20;;;4.75;;
20705;SDS011;10514;49.468;11.044;2023-07-08T13:28:46;8.27;;;5.00;;
20705;SDS011;10514;49.468;11.044;2023-07-08T13:31:21;8.75;;;5.10;;
20705;SDS011;10514;49.468;11.044;2023-07-08T13:33:51;6.00;;;4.63;;
20705;SDS011;10514;49.468;11.044;2023-07-08T13:36:19;7.85;;;4.65;;
20705;SDS011;10514;49.468;11.044;2023-07-08T13:38:45;5.72;;;3.92;;
20705;SDS011;10514;49.468;11.044;2023-07-08T13:41:13;7.22;;;4.78;;
20705;SDS011;10514;49.468;11.044;2023-07-08T13:43:43;8.98;;;5.15;;
20705;SDS011;10514;49.468;11.044;2023-07-08T13:46:33;7.55;;;4.80;;
20705;SDS011;10514;49.468;11.044;2023-07-08T13:48:55;6.03;;;4.50;;
20705;SDS011;10514;49.468;11.044;2023-07-08T13:51:22;6.28;;;4.85;;
20705;SDS011;10514;49.468;11.044;2023-07-08T13:53:50;5.95;;;4.28;;
20705;SDS011;10514;49.468;11.044;2023-07-08T13:58:46;4.63;;;4.13;;
20705;SDS011;10514;49.468;11.044;2023-07-08T14:01:15;5.95;;;4.88;;
20705;SDS011;10514;49.468;11.044;2023-07-08T14:03:43;6.15;;;4.80;;
20705;SDS011;10514;49.468;11.044;2023-07-08T14:06:31;6.18;;;4.82;;
20705;SDS011;10514;49.468;11.044;2023-07-08T14:08:57;6.38;;;4.25;;
20705;SDS011;10514;49.468;11.044;2023-07-08T14:11:24;8.32;;;5.57;;
20705;SDS011;10514;49.468;11.044;2023-07-08T14:13:50;7.07;;;4.25;;
20705;SDS011;10514;49.468;11.044;2023-07-08T14:16:29;5.53;;;3.88;;
20705;SDS011;10514;49.468;11.044;2023-07-08T14:18:59;7.05;;;4.45;;
20705;SDS011;10514;49.468;11.044;2023-07-08T14:21:26;7.10;;;5.13;;
20705;SDS011;10514;49.468;11.044;2023-07-08T14:23:52;6.30;;;5.03;;
20705;SDS011;10514;49.468;11.044;2023-07-08T14:26:18;6.57;;;4.20;;
20705;SDS011;10514;49.468;11.044;2023-07-08T14:28:44;6.18;;;4.57;;
20705;SDS011;10514;49.468;11.044;2023-07-08T14:31:11;10.13;;;4.30;;
20705;SDS011;10514;49.468;11.044;2023-07-08T14:33:37;6.60;;;4.80;;
20705;SDS011;10514;49.468;11.044;2023-07-08T14:36:10;6.65;;;4.78;;
20705;SDS011;10514;49.468;11.044;2023-07-08T14:38:36;6.53;;;4.30;;
20705;SDS011;10514;49.468;11.044;2023-07-08T14:41:03;5.95;;;4.50;;
20705;SDS011;10514;49.468;11.044;2023-07-08T14:43:30;7.35;;;4.68;;
20705;SDS011;10514;49.468;11.044;2023-07-08T14:45:57;7.63;;;4.80;;
20705;SDS011;10514;49.468;11.044;2023-07-08T14:48:23;8.02;;;4.65;;
20705;SDS011;10514;49.468;11.044;2023-07-08T14:50:49;8.75;;;4.90;;
20705;SDS011;10514;49.468;11.044;2023-07-08T14:53:16;6.55;;;4.65;;
20705;SDS011;10514;49.468;11.044;2023-07-08T14:55:47;6.75;;;4.88;;
20705;SDS011;10514;49.468;11.044;2023-07-08T14:58:23;7.07;;;4.55;;
20705;SDS011;10514;49.468;11.044;2023-07-08T15:00:50;8.52;;;4.40;;
20705;SDS011;10514;49.468;11.044;2023-07-08T15:03:18;5.75;;;4.45;;
20705;SDS011;10514;49.468;11.044;2023-07-08T15:05:44;5.70;;;4.55;;
20705;SDS011;10514;49.468;11.044;2023-07-08T15:08:10;10.18;;;4.93;;
20705;SDS011;10514;49.468;11.044;2023-07-08T15:10:36;5.28;;;4.50;;
20705;SDS011;10514;49.468;11.044;2023-07-08T15:13:02;9.20;;;4.38;;
20705;SDS011;10514;49.468;11.044;2023-07-08T15:15:31;5.68;;;4.45;;
20705;SDS011;10514;49.468;11.044;2023-07-08T15:18:00;7.32;;;4.45;;
20705;SDS011;10514;49.468;11.044;2023-07-08T15:20:27;7.40;;;4.70;;
20705;SDS011;10514;49.468;11.044;2023-07-08T15:22:53;5.05;;;4.18;;
20705;SDS011;10514;49.468;11.044;2023-07-08T15:25:20;10.23;;;4.90;;
20705;SDS011;10514;49.468;11.044;2023-07-08T15:27:46;7.95;;;4.55;;
20705;SDS011;10514;49.468;11.044;2023-07-08T15:30:17;6.65;;;4.30;;
20705;SDS011;10514;49.468;11.044;2023-07-08T15:32:43;6.20;;;5.05;;